createdAt,value
2022-08-14T00:00:59.249Z,5.80
2022-08-14T00:03:02.439Z,6.20
2022-08-14T00:05:10.124Z,6.23
2022-08-14T00:07:14.813Z,6.40
2022-08-14T00:09:18.448Z,6.40
2022-08-14T00:11:23.238Z,5.80
2022-08-14T00:13:29.083Z,6.03
2022-08-14T00:15:43.332Z,6.23
2022-08-14T00:17:52.977Z,6.20
2022-08-14T00:19:56.749Z,6.60
2022-08-14T00:22:01.169Z,6.10
2022-08-14T00:24:04.900Z,6.60
2022-08-14T00:26:08.439Z,6.20
2022-08-14T00:28:29.056Z,6.57
2022-08-14T00:30:35.732Z,6.50
2022-08-14T00:32:52.688Z,6.63
2022-08-14T00:35:01.457Z,6.30
2022-08-14T00:37:06.622Z,6.70
2022-08-14T00:39:14.233Z,6.57
2022-08-14T00:41:17.709Z,6.30
2022-08-14T00:43:21.110Z,6.00
2022-08-14T00:45:24.697Z,6.10
2022-08-14T00:47:27.893Z,6.67
2022-08-14T00:49:38.086Z,6.40
2022-08-14T00:51:46.397Z,6.57
2022-08-14T00:53:53.835Z,6.40
2022-08-14T00:55:57.684Z,6.50
2022-08-14T00:58:18.875Z,6.90
2022-08-14T01:00:37.125Z,6.50
2022-08-14T01:02:47.088Z,6.50
2022-08-14T01:05:00.798Z,6.23
2022-08-14T01:07:08.141Z,6.70
2022-08-14T01:09:14.234Z,6.37
2022-08-14T01:11:19.083Z,6.50
2022-08-14T01:13:25.110Z,6.40
2022-08-14T01:15:57.458Z,6.03
2022-08-14T01:18:20.149Z,6.43
2022-08-14T01:20:42.679Z,7.33
2022-08-14T01:22:50.204Z,6.70
2022-08-14T01:24:53.667Z,6.73
2022-08-14T01:26:57.779Z,6.67
2022-08-14T01:29:06.048Z,6.13
2022-08-14T01:31:12.608Z,6.10
2022-08-14T01:33:17.996Z,6.43
2022-08-14T01:36:03.461Z,6.50
2022-08-14T01:37:56.061Z,5.90
2022-08-14T01:40:03.013Z,6.60
2022-08-14T01:42:07.174Z,6.60
2022-08-14T01:44:32.826Z,6.50
2022-08-14T01:46:40.088Z,6.50
2022-08-14T01:48:44.338Z,6.40
2022-08-14T01:50:47.711Z,6.83
2022-08-14T01:52:58.414Z,6.70
2022-08-14T01:55:06.752Z,6.83
2022-08-14T01:57:11.573Z,6.50
2022-08-14T01:59:21.848Z,6.83
2022-08-14T02:01:26.674Z,6.70
2022-08-14T02:03:34.502Z,6.70
2022-08-14T02:05:39.108Z,6.70
2022-08-14T02:07:53.704Z,6.67
2022-08-14T02:09:59.974Z,7.17
2022-08-14T02:12:06.723Z,6.87
2022-08-14T02:14:14.255Z,6.20
2022-08-14T02:16:22.455Z,7.50
2022-08-14T02:18:28.104Z,7.27
2022-08-14T02:20:36.222Z,7.00
2022-08-14T02:22:47.418Z,7.20
2022-08-14T02:24:52.313Z,7.17
2022-08-14T02:28:20.240Z,7.10
2022-08-14T02:29:24.404Z,6.67
2022-08-14T02:31:50.208Z,6.20
2022-08-14T02:33:55.061Z,6.50
2022-08-14T02:36:05.018Z,6.63
2022-08-14T02:38:30.014Z,6.87
2022-08-14T02:40:37.973Z,7.00
2022-08-14T02:42:41.678Z,7.20
2022-08-14T02:45:00.436Z,6.40
2022-08-14T02:47:14.672Z,6.47
2022-08-14T02:49:21.638Z,7.27
2022-08-14T02:51:30.703Z,6.70
2022-08-14T02:53:35.078Z,6.90
2022-08-14T02:55:41.295Z,6.83
2022-08-14T02:57:45.038Z,7.73
2022-08-14T02:59:57.449Z,7.10
2022-08-14T03:02:03.110Z,7.23
2022-08-14T03:04:09.919Z,7.40
2022-08-14T03:06:20.615Z,7.67
2022-08-14T03:08:39.620Z,7.20
2022-08-14T03:10:50.322Z,7.27
2022-08-14T03:12:53.539Z,7.17
2022-08-14T03:14:56.951Z,7.53
2022-08-14T03:17:00.073Z,6.97
2022-08-14T03:19:07.138Z,7.80
2022-08-14T03:21:13.309Z,7.17
2022-08-14T03:23:16.777Z,7.80
2022-08-14T03:25:21.768Z,7.67
2022-08-14T03:27:35.199Z,8.00
2022-08-14T03:29:50.142Z,7.93
2022-08-14T03:31:53.278Z,7.83
2022-08-14T03:33:56.937Z,8.30
2022-08-14T03:37:38.575Z,7.77
2022-08-14T03:39:11.904Z,7.37
2022-08-14T03:40:54.740Z,7.53
2022-08-14T03:42:58.961Z,8.03
2022-08-14T03:45:25.121Z,8.30
2022-08-14T03:47:34.237Z,8.40
2022-08-14T03:49:50.021Z,7.57
2022-08-14T03:51:54.821Z,7.77
2022-08-14T03:53:59.565Z,8.23
2022-08-14T03:56:02.598Z,7.90
2022-08-14T03:58:06.873Z,8.50
2022-08-14T04:00:27.616Z,7.80
2022-08-14T04:02:37.420Z,8.00
2022-08-14T04:04:50.377Z,7.90
2022-08-14T04:06:54.799Z,8.53
2022-08-14T04:09:01.812Z,7.63
2022-08-14T04:11:07.779Z,9.60
2022-08-14T04:13:16.476Z,9.63
2022-08-14T04:15:21.169Z,12.47
2022-08-14T04:17:29.413Z,8.63
2022-08-14T04:19:36.359Z,7.80
2022-08-14T04:22:03.435Z,8.53
2022-08-14T04:24:06.070Z,8.70
2022-08-14T04:26:14.413Z,7.50
2022-08-14T04:29:07.128Z,7.90
2022-08-14T04:30:42.289Z,8.23
2022-08-14T04:33:02.249Z,8.50
2022-08-14T04:35:10.546Z,8.60
2022-08-14T04:37:31.678Z,8.27
2022-08-14T04:39:56.596Z,8.40
2022-08-14T04:42:18.011Z,7.37
2022-08-14T04:44:36.116Z,8.40
2022-08-14T04:46:54.786Z,8.20
2022-08-14T04:49:00.359Z,7.80
2022-08-14T04:51:05.841Z,7.70
2022-08-14T04:53:11.023Z,7.80
2022-08-14T04:55:15.525Z,8.40
2022-08-14T04:57:19.259Z,8.50
2022-08-14T04:59:23.645Z,8.13
2022-08-14T05:01:27.650Z,7.30
2022-08-14T05:03:33.578Z,8.40
2022-08-14T05:05:36.794Z,8.70
2022-08-14T05:07:53.939Z,7.97
2022-08-14T05:09:57.949Z,8.97
2022-08-14T05:13:11.149Z,7.77
2022-08-14T05:14:45.946Z,8.43
2022-08-14T05:16:49.930Z,8.87
2022-08-14T05:19:17.907Z,8.67
2022-08-14T05:22:00.075Z,8.30
2022-08-14T05:23:41.787Z,8.40
2022-08-14T05:25:47.403Z,9.17
2022-08-14T05:27:53.821Z,8.40
2022-08-14T05:29:58.075Z,8.00
2022-08-14T05:32:06.335Z,8.63
2022-08-14T05:34:10.642Z,8.47
2022-08-14T05:36:16.764Z,8.47
2022-08-14T05:38:22.276Z,8.80
2022-08-14T05:40:35.243Z,8.27
2022-08-14T05:42:38.937Z,8.70
2022-08-14T05:44:46.090Z,8.60
2022-08-14T05:46:49.242Z,8.40
2022-08-14T05:48:54.259Z,7.90
2022-08-14T05:50:57.406Z,8.30
2022-08-14T05:53:01.957Z,9.10
2022-08-14T05:55:05.664Z,8.63
2022-08-14T05:57:08.717Z,8.43
2022-08-14T05:59:14.011Z,9.10
2022-08-14T06:01:21.483Z,8.53
2022-08-14T06:03:26.751Z,8.37
2022-08-14T06:05:30.391Z,8.40
2022-08-14T06:07:36.764Z,8.47
2022-08-14T06:09:40.633Z,8.40
2022-08-14T06:11:43.970Z,7.93
2022-08-14T06:13:52.970Z,8.30
2022-08-14T06:15:57.447Z,8.40
2022-08-14T06:18:02.650Z,9.13
2022-08-14T06:20:06.886Z,8.37
2022-08-14T06:22:13.461Z,7.90
2022-08-14T06:24:20.649Z,7.40
2022-08-14T06:26:30.258Z,7.63
2022-08-14T06:28:33.952Z,7.10
2022-08-14T06:30:45.975Z,7.30
2022-08-14T06:32:52.484Z,7.90
2022-08-14T06:35:04.692Z,7.63
2022-08-14T06:37:18.683Z,7.40
2022-08-14T06:39:36.517Z,8.00
2022-08-14T06:41:58.650Z,7.33
2022-08-14T06:44:02.826Z,7.30
2022-08-14T06:46:06.308Z,7.40
2022-08-14T06:48:23.711Z,7.47
2022-08-14T06:50:30.269Z,7.13
2022-08-14T06:52:33.586Z,6.83
2022-08-14T06:54:36.716Z,7.00
2022-08-14T06:56:40.286Z,6.30
2022-08-14T06:58:47.561Z,6.73
2022-08-14T07:01:08.151Z,6.73
2022-08-14T07:03:29.091Z,7.43
2022-08-14T07:05:55.529Z,6.10
2022-08-14T07:08:01.069Z,6.10
2022-08-14T07:10:05.050Z,6.07
2022-08-14T07:12:08.935Z,6.80
2022-08-14T07:14:31.946Z,7.10
2022-08-14T07:16:35.278Z,6.53
2022-08-14T07:18:40.768Z,6.20
2022-08-14T07:20:45.570Z,6.10
2022-08-14T07:22:56.424Z,5.97
2022-08-14T07:25:00.264Z,6.37
2022-08-14T07:27:03.384Z,6.07
2022-08-14T07:29:06.446Z,6.60
2022-08-14T07:31:11.513Z,6.20
2022-08-14T07:33:14.715Z,6.40
2022-08-14T07:35:18.104Z,6.37
2022-08-14T07:37:22.538Z,6.77
2022-08-14T07:39:27.523Z,6.20
2022-08-14T07:41:33.538Z,5.87
2022-08-14T07:43:37.770Z,5.70
2022-08-14T07:45:42.335Z,5.20
2022-08-14T07:47:45.529Z,5.30
2022-08-14T07:49:56.124Z,5.67
2022-08-14T07:51:59.966Z,5.67
2022-08-14T07:54:11.002Z,5.80
2022-08-14T07:56:44.114Z,5.30
2022-08-14T07:58:38.848Z,5.70
2022-08-14T08:00:56.550Z,5.50
2022-08-14T08:03:00.621Z,5.60
2022-08-14T08:05:04.001Z,5.53
2022-08-14T08:07:07.831Z,5.60
2022-08-14T08:09:13.235Z,5.20
2022-08-14T08:11:19.456Z,5.47
2022-08-14T08:13:24.432Z,5.73
2022-08-14T08:15:29.195Z,6.53
2022-08-14T08:17:34.805Z,5.73
2022-08-14T08:19:41.508Z,4.83
2022-08-14T08:21:47.631Z,5.10
2022-08-14T08:23:51.620Z,4.60
2022-08-14T08:25:58.516Z,4.70
2022-08-14T08:28:08.196Z,4.47
2022-08-14T08:30:13.050Z,4.73
2022-08-14T08:32:16.147Z,4.40
2022-08-14T08:34:19.782Z,4.97
2022-08-14T08:36:29.950Z,4.90
2022-08-14T08:39:17.840Z,4.87
2022-08-14T08:41:00.069Z,4.57
2022-08-14T08:43:04.132Z,4.30
2022-08-14T08:45:12.142Z,4.47
2022-08-14T08:47:15.417Z,4.60
2022-08-14T08:49:19.321Z,4.33
2022-08-14T08:51:33.599Z,4.10
2022-08-14T08:53:38.025Z,4.50
2022-08-14T08:55:46.507Z,4.10
2022-08-14T08:57:55.262Z,4.10
2022-08-14T08:59:58.741Z,4.73
2022-08-14T09:02:05.324Z,4.37
2022-08-14T09:04:14.724Z,4.50
2022-08-14T09:06:59.931Z,4.60
2022-08-14T09:08:46.265Z,4.30
2022-08-14T09:10:52.447Z,4.90
2022-08-14T09:13:01.005Z,4.40
2022-08-14T09:15:11.455Z,4.50
2022-08-14T09:17:15.551Z,4.57
2022-08-14T09:19:19.065Z,4.60
2022-08-14T09:21:31.424Z,4.53
2022-08-14T09:24:26.158Z,4.90
2022-08-14T09:26:00.042Z,4.20
2022-08-14T09:28:06.800Z,4.80
2022-08-14T09:30:30.662Z,4.80
2022-08-14T09:32:58.688Z,4.70
2022-08-14T09:35:08.481Z,4.53
2022-08-14T09:37:22.439Z,5.03
2022-08-14T09:39:38.335Z,5.03
2022-08-14T09:42:21.253Z,5.20
2022-08-14T09:44:31.063Z,5.37
2022-08-14T09:46:34.762Z,5.23
2022-08-14T09:48:38.725Z,4.70
2022-08-14T09:50:47.314Z,5.00
2022-08-14T09:52:54.943Z,4.73
2022-08-14T09:54:59.759Z,5.33
2022-08-14T09:57:06.582Z,4.83
2022-08-14T09:59:14.933Z,4.90
2022-08-14T10:01:21.346Z,5.00
2022-08-14T10:03:33.944Z,5.33
2022-08-14T10:05:39.523Z,5.20
2022-08-14T10:07:53.775Z,5.33
2022-08-14T10:10:02.549Z,5.00
2022-08-14T10:12:28.750Z,5.03
2022-08-14T10:14:37.111Z,5.47
2022-08-14T10:16:45.467Z,5.07
2022-08-14T10:18:51.025Z,5.13
2022-08-14T10:20:57.819Z,4.83
2022-08-14T10:23:21.874Z,5.13
2022-08-14T10:25:26.790Z,5.77
2022-08-14T10:27:30.060Z,5.57
2022-08-14T10:29:35.142Z,10.80
2022-08-14T10:31:45.179Z,5.90
2022-08-14T10:34:04.973Z,5.37
2022-08-14T10:36:35.251Z,5.57
2022-08-14T10:38:44.093Z,5.57
2022-08-14T10:40:59.425Z,5.60
2022-08-14T10:43:05.300Z,5.30
2022-08-14T10:45:21.195Z,5.50
2022-08-14T10:47:41.429Z,5.97
2022-08-14T10:50:01.558Z,5.33
2022-08-14T10:52:07.169Z,5.47
2022-08-14T10:54:25.971Z,5.90
2022-08-14T10:56:35.743Z,5.47
2022-08-14T10:58:38.863Z,5.60
2022-08-14T11:00:46.978Z,5.30
2022-08-14T11:02:59.074Z,5.27
2022-08-14T11:05:08.591Z,5.53
2022-08-14T11:07:21.228Z,5.97
2022-08-14T11:09:26.597Z,5.60
2022-08-14T11:11:43.846Z,5.90
2022-08-14T11:13:50.893Z,5.20
2022-08-14T11:15:56.155Z,5.33
2022-08-14T11:18:01.453Z,5.40
2022-08-14T11:20:13.695Z,5.77
2022-08-14T11:22:52.549Z,5.90
2022-08-14T11:24:54.803Z,5.97
2022-08-14T11:27:00.669Z,5.30
2022-08-14T11:29:05.749Z,5.20
2022-08-14T11:31:10.650Z,5.70
2022-08-14T11:33:14.048Z,5.20
2022-08-14T11:35:22.173Z,5.50
2022-08-14T11:37:35.209Z,5.13
2022-08-14T11:39:42.608Z,5.40
2022-08-14T11:41:56.046Z,7.57
2022-08-14T11:43:59.752Z,5.50
2022-08-14T11:46:03.712Z,5.70
2022-08-14T11:49:01.693Z,6.07
2022-08-14T11:50:43.389Z,6.10
2022-08-14T11:52:50.731Z,5.93
2022-08-14T11:55:00.498Z,5.37
2022-08-14T11:57:04.443Z,5.70
2022-08-14T11:59:10.282Z,5.93
2022-08-14T12:01:16.053Z,5.40
2022-08-14T12:03:37.642Z,6.50
2022-08-14T12:05:43.704Z,5.60
2022-08-14T12:07:50.305Z,5.60
2022-08-14T12:09:55.969Z,5.80
2022-08-14T12:11:59.804Z,5.57
2022-08-14T12:14:13.596Z,5.10
2022-08-14T12:16:33.234Z,5.43
2022-08-14T12:18:38.364Z,5.60
2022-08-14T12:20:45.872Z,4.70
2022-08-14T12:22:55.266Z,4.70
2022-08-14T12:24:58.727Z,5.57
2022-08-14T12:27:02.806Z,4.93
2022-08-14T12:29:08.606Z,5.00
2022-08-14T12:31:20.726Z,5.27
2022-08-14T12:33:30.607Z,5.20
2022-08-14T12:35:39.672Z,5.50
2022-08-14T12:37:50.755Z,5.23
2022-08-14T12:39:54.073Z,5.60
2022-08-14T12:42:06.651Z,5.37
2022-08-14T12:44:09.774Z,5.27
2022-08-14T12:46:27.198Z,6.10
2022-08-14T12:48:32.515Z,5.60
2022-08-14T12:50:37.466Z,4.80
2022-08-14T12:52:56.012Z,5.10
2022-08-14T12:55:08.940Z,4.63
2022-08-14T12:57:18.977Z,5.10
2022-08-14T12:59:30.937Z,5.60
2022-08-14T13:02:01.731Z,5.30
2022-08-14T13:04:07.221Z,5.50
2022-08-14T13:06:10.648Z,5.10
2022-08-14T13:08:33.565Z,5.30
2022-08-14T13:10:47.724Z,5.10
2022-08-14T13:13:13.239Z,5.37
2022-08-14T13:15:19.358Z,5.20
2022-08-14T13:17:24.271Z,5.57
2022-08-14T13:19:30.990Z,5.27
2022-08-14T13:22:05.907Z,5.47
2022-08-14T13:23:57.693Z,5.10
2022-08-14T13:26:02.889Z,5.23
2022-08-14T13:28:11.103Z,5.30
2022-08-14T13:30:23.400Z,5.27
2022-08-14T13:32:28.671Z,5.23
2022-08-14T13:34:31.906Z,5.23
2022-08-14T13:36:56.985Z,5.30
2022-08-14T13:39:00.395Z,5.80
2022-08-14T13:41:06.104Z,5.80
2022-08-14T13:43:09.883Z,5.27
2022-08-14T13:45:13.823Z,5.40
2022-08-14T13:47:20.750Z,5.13
2022-08-14T13:49:24.309Z,5.43
2022-08-14T13:51:33.284Z,5.13
2022-08-14T13:53:49.533Z,5.33
2022-08-14T13:56:14.666Z,5.23
2022-08-14T13:58:33.509Z,5.40
2022-08-14T14:00:53.082Z,5.47
2022-08-14T14:02:59.788Z,5.10
2022-08-14T14:05:05.207Z,5.47
2022-08-14T14:07:11.500Z,5.43
2022-08-14T14:09:16.400Z,5.30
2022-08-14T14:11:23.877Z,5.40
2022-08-14T14:13:27.883Z,5.10
2022-08-14T14:15:58.175Z,5.10
2022-08-14T14:18:01.467Z,4.70
2022-08-14T14:20:06.212Z,5.43
2022-08-14T14:22:09.790Z,5.00
2022-08-14T14:24:16.132Z,5.50
2022-08-14T14:26:24.064Z,4.90
2022-08-14T14:28:32.337Z,5.00
2022-08-14T14:30:52.588Z,5.13
2022-08-14T14:33:05.194Z,5.13
2022-08-14T14:35:12.359Z,5.17
2022-08-14T14:37:15.509Z,5.03
2022-08-14T14:39:21.262Z,4.90
2022-08-14T14:41:37.961Z,4.77
2022-08-14T14:43:51.589Z,5.57
2022-08-14T14:45:56.271Z,4.93
2022-08-14T14:48:01.951Z,5.00
2022-08-14T14:50:08.265Z,4.80
2022-08-14T14:52:23.482Z,5.13
2022-08-14T14:54:37.391Z,4.87
2022-08-14T14:56:49.304Z,4.60
2022-08-14T14:58:56.023Z,4.93
2022-08-14T15:01:00.534Z,4.13
2022-08-14T15:03:07.020Z,4.33
2022-08-14T15:05:11.258Z,4.70
2022-08-14T15:07:16.734Z,4.50
2022-08-14T15:09:20.310Z,4.20
2022-08-14T15:11:23.538Z,4.67
2022-08-14T15:13:28.239Z,4.70
2022-08-14T15:15:37.838Z,4.93
2022-08-14T15:17:43.242Z,4.37
2022-08-14T15:19:56.959Z,4.67
2022-08-14T15:22:00.330Z,4.60
2022-08-14T15:24:04.177Z,4.70
2022-08-14T15:26:07.764Z,4.57
2022-08-14T15:28:13.076Z,5.10
2022-08-14T15:30:32.028Z,4.67
2022-08-14T15:32:36.228Z,4.73
2022-08-14T15:34:43.851Z,4.50
2022-08-14T15:36:50.904Z,4.93
2022-08-14T15:38:54.282Z,4.23
2022-08-14T15:40:57.365Z,5.03
2022-08-14T15:43:00.812Z,4.47
2022-08-14T15:45:05.682Z,4.43
2022-08-14T15:47:10.256Z,5.03
2022-08-14T15:49:13.866Z,4.70
2022-08-14T15:51:17.254Z,4.70
2022-08-14T15:53:22.251Z,4.43
2022-08-14T15:55:25.495Z,4.30
2022-08-14T15:57:29.357Z,10.70
2022-08-14T15:59:54.035Z,4.80
2022-08-14T16:01:57.178Z,4.60
2022-08-14T16:04:01.778Z,6.50
2022-08-14T16:06:05.652Z,4.40
2022-08-14T16:08:29.409Z,4.47
2022-08-14T16:10:32.998Z,4.30
2022-08-14T16:12:41.819Z,4.00
2022-08-14T16:14:50.037Z,4.33
2022-08-14T16:17:00.464Z,4.60
2022-08-14T16:19:09.704Z,4.37
2022-08-14T16:21:15.495Z,3.97
2022-08-14T16:23:20.933Z,4.00
2022-08-14T16:25:34.359Z,3.97
2022-08-14T16:27:41.248Z,3.93
2022-08-14T16:29:45.092Z,4.50
2022-08-14T16:31:49.281Z,4.00
2022-08-14T16:33:59.705Z,3.90
2022-08-14T16:36:19.700Z,4.10
2022-08-14T16:38:45.758Z,4.10
2022-08-14T16:41:11.682Z,4.47
2022-08-14T16:43:16.611Z,3.90
2022-08-14T16:45:23.491Z,4.10
2022-08-14T16:47:31.986Z,4.03
2022-08-14T16:50:02.780Z,4.10
2022-08-14T16:52:04.442Z,3.80
2022-08-14T16:54:35.435Z,4.13
2022-08-14T16:56:47.781Z,4.20
2022-08-14T16:59:06.031Z,4.17
2022-08-14T17:01:24.343Z,3.97
2022-08-14T17:03:29.024Z,4.07
2022-08-14T17:05:47.085Z,4.07
2022-08-14T17:08:31.781Z,4.13
2022-08-14T17:11:00.121Z,4.40
2022-08-14T17:13:17.620Z,4.13
2022-08-14T17:15:21.024Z,4.27
2022-08-14T17:17:29.282Z,3.73
2022-08-14T17:19:41.146Z,3.80
2022-08-14T17:21:47.557Z,5.67
2022-08-14T17:23:53.547Z,4.90
2022-08-14T17:25:57.055Z,4.30
2022-08-14T17:28:49.926Z,4.50
2022-08-14T17:30:49.339Z,3.77
2022-08-14T17:32:56.075Z,4.00
2022-08-14T17:35:01.930Z,3.50
2022-08-14T17:37:06.131Z,4.03
2022-08-14T17:39:19.752Z,3.50
2022-08-14T17:41:32.969Z,3.77
2022-08-14T17:43:42.854Z,3.47
2022-08-14T17:45:46.813Z,3.40
2022-08-14T17:47:51.307Z,3.53
2022-08-14T17:49:56.624Z,4.00
2022-08-14T17:52:07.517Z,3.80
2022-08-14T17:54:34.580Z,4.87
2022-08-14T17:56:38.811Z,10.50
2022-08-14T17:58:42.633Z,6.20
2022-08-14T18:00:46.615Z,5.10
2022-08-14T18:02:53.935Z,5.43
2022-08-14T18:05:00.154Z,5.77
2022-08-14T18:07:16.906Z,6.77
2022-08-14T18:09:32.951Z,8.97
2022-08-14T18:11:45.799Z,8.53
2022-08-14T18:13:52.708Z,8.50
2022-08-14T18:15:57.887Z,8.07
2022-08-14T18:18:02.062Z,8.10
2022-08-14T18:21:24.050Z,7.00
2022-08-14T18:22:37.035Z,6.93
2022-08-14T18:24:44.126Z,7.40
2022-08-14T18:26:51.262Z,9.10
2022-08-14T18:29:14.762Z,6.10
2022-08-14T18:31:43.375Z,6.03
2022-08-14T18:33:55.307Z,5.90
2022-08-14T18:36:46.583Z,5.90
2022-08-14T18:38:26.503Z,5.30
2022-08-14T18:40:50.437Z,5.30
2022-08-14T18:42:57.196Z,4.97
2022-08-14T18:45:15.648Z,5.83
2022-08-14T18:47:22.148Z,5.30
2022-08-14T18:49:25.195Z,12.03
2022-08-14T18:51:45.277Z,8.23
2022-08-14T18:53:55.358Z,5.20
2022-08-14T18:56:09.768Z,6.90
2022-08-14T18:58:25.991Z,6.03
2022-08-14T19:00:54.679Z,6.33
2022-08-14T19:02:58.400Z,6.10
2022-08-14T19:05:02.557Z,5.47
2022-08-14T19:07:16.379Z,5.30
2022-08-14T19:09:57.824Z,5.70
2022-08-14T19:12:02.784Z,5.80
2022-08-14T19:14:08.807Z,4.50
2022-08-14T19:16:14.542Z,5.07
2022-08-14T19:18:26.502Z,4.90
2022-08-14T19:20:46.357Z,4.80
2022-08-14T19:22:55.183Z,5.23
2022-08-14T19:24:58.982Z,5.90
2022-08-14T19:27:24.796Z,4.90
2022-08-14T19:29:37.700Z,7.40
2022-08-14T19:31:55.087Z,6.93
2022-08-14T19:34:00.279Z,8.33
2022-08-14T19:36:31.484Z,5.87
2022-08-14T19:38:54.202Z,5.10
2022-08-14T19:40:57.295Z,5.53
2022-08-14T19:43:09.362Z,5.00
2022-08-14T19:45:15.579Z,5.00
2022-08-14T19:47:19.130Z,5.60
2022-08-14T19:50:24.724Z,5.00
2022-08-14T19:51:55.611Z,4.80
2022-08-14T19:54:06.536Z,5.00
2022-08-14T19:56:28.561Z,4.80
2022-08-14T19:58:54.413Z,5.37
2022-08-14T20:00:59.605Z,4.70
2022-08-14T20:03:11.912Z,5.10
2022-08-14T20:05:18.786Z,5.13
2022-08-14T20:08:00.463Z,5.40
2022-08-14T20:11:03.834Z,4.90
2022-08-14T20:12:28.974Z,5.07
2022-08-14T20:14:40.117Z,4.87
2022-08-14T20:17:03.226Z,4.70
2022-08-14T20:19:24.670Z,4.53
2022-08-14T20:21:34.359Z,4.83
2022-08-14T20:23:38.884Z,5.03
2022-08-14T20:25:55.827Z,5.30
2022-08-14T20:28:29.829Z,5.37
2022-08-14T20:30:36.414Z,4.57
2022-08-14T20:32:41.122Z,5.00
2022-08-14T20:34:51.479Z,4.90
2022-08-14T20:37:09.538Z,5.10
2022-08-14T20:39:15.429Z,4.40
2022-08-14T20:41:21.259Z,4.20
2022-08-14T20:43:44.994Z,4.70
2022-08-14T20:45:52.144Z,4.67
2022-08-14T20:47:58.307Z,4.87
2022-08-14T20:50:16.651Z,5.00
2022-08-14T20:52:21.129Z,4.60
2022-08-14T20:54:34.673Z,4.97
2022-08-14T20:56:41.663Z,5.40
2022-08-14T20:58:44.675Z,5.37
2022-08-14T21:01:00.521Z,5.30
2022-08-14T21:03:31.303Z,5.13
2022-08-14T21:05:34.635Z,5.63
2022-08-14T21:07:38.916Z,5.63
2022-08-14T21:10:06.637Z,5.73
2022-08-14T21:12:34.745Z,5.47
2022-08-14T21:14:34.180Z,4.70
2022-08-14T21:16:45.108Z,5.20
2022-08-14T21:19:02.455Z,5.27
2022-08-14T21:21:09.472Z,5.30
2022-08-14T21:23:14.140Z,6.10
2022-08-14T21:25:20.793Z,5.70
2022-08-14T21:27:24.044Z,5.20
2022-08-14T21:29:27.090Z,5.50
2022-08-14T21:31:30.962Z,5.50
2022-08-14T21:33:35.486Z,5.83
2022-08-14T21:35:46.409Z,5.90
2022-08-14T21:37:52.378Z,6.00
2022-08-14T21:39:58.523Z,5.67
2022-08-14T21:42:04.632Z,4.70
2022-08-14T21:44:17.427Z,5.20
2022-08-14T21:46:23.484Z,4.90
2022-08-14T21:48:29.732Z,4.60
2022-08-14T21:51:00.830Z,5.10
2022-08-14T21:53:01.041Z,5.30
2022-08-14T21:55:09.133Z,5.53
2022-08-14T21:57:17.327Z,5.40
2022-08-14T21:59:24.419Z,5.03
2022-08-14T22:02:00.831Z,5.40
2022-08-14T22:03:59.313Z,5.70
2022-08-14T22:06:04.156Z,5.17
2022-08-14T22:08:12.453Z,5.87
2022-08-14T22:10:23.076Z,5.30
2022-08-14T22:12:47.177Z,5.20
2022-08-14T22:14:50.823Z,5.47
2022-08-14T22:17:00.575Z,4.87
2022-08-14T22:19:18.153Z,5.57
2022-08-14T22:21:23.295Z,4.87
2022-08-14T22:23:27.895Z,5.10
2022-08-14T22:25:31.952Z,5.20
2022-08-14T22:27:37.885Z,5.13
2022-08-14T22:29:59.775Z,5.60
2022-08-14T22:32:07.018Z,5.50
2022-08-14T22:34:11.784Z,4.67
2022-08-14T22:36:42.251Z,5.37
2022-08-14T22:38:49.946Z,5.13
2022-08-14T22:41:08.931Z,5.60
2022-08-14T22:43:17.482Z,5.70
2022-08-14T22:45:20.736Z,5.20
2022-08-14T22:47:25.490Z,5.20
2022-08-14T22:50:29.071Z,5.67
2022-08-14T22:51:53.777Z,4.97
2022-08-14T22:53:59.027Z,5.30
2022-08-14T22:56:02.285Z,5.40
2022-08-14T22:58:07.706Z,4.70
2022-08-14T23:00:14.373Z,5.20
2022-08-14T23:02:22.208Z,4.90
2022-08-14T23:04:53.767Z,4.83
2022-08-14T23:07:04.503Z,5.07
2022-08-14T23:09:35.893Z,5.70
2022-08-14T23:11:33.614Z,5.30
2022-08-14T23:13:39.007Z,5.27
2022-08-14T23:15:42.631Z,5.50
2022-08-14T23:17:46.337Z,5.20
2022-08-14T23:19:56.153Z,5.23
2022-08-14T23:22:00.781Z,4.83
2022-08-14T23:24:04.954Z,5.30
2022-08-14T23:26:48.050Z,4.80
2022-08-14T23:28:57.268Z,5.03
2022-08-14T23:30:56.136Z,4.83
2022-08-14T23:32:59.856Z,5.30
2022-08-14T23:35:05.718Z,5.33
2022-08-14T23:37:08.840Z,5.10
2022-08-14T23:39:19.149Z,4.80
2022-08-14T23:41:23.782Z,5.23
2022-08-14T23:43:31.122Z,5.57
2022-08-14T23:45:37.214Z,5.17
2022-08-14T23:47:52.140Z,5.53
2022-08-14T23:50:01.430Z,4.83
2022-08-14T23:52:55.633Z,5.03
2022-08-14T23:54:48.715Z,5.50
2022-08-14T23:57:02.542Z,4.90
2022-08-14T23:59:06.748Z,5.00
